www.cux-wetter.de
Wetterdaten: Dienstag, 14.09.2010
Datum Zeit Temp. A. Feuchte A. Luftdruck Regen Wind Richtung Richtung Sonnenschein Solar Taupunkt Windchill Windben
14.09.2010 00:02 15,2 C 76 % 1016,5 hPa 0,0 l/m 19,8 km/h (3 Bft) W-SW 240 0 min 0 W/m 11,0 C 10,1 C 19,8 km/h (3 Bft)
14.09.2010 00:07 15,2 C 76 % 1016,5 hPa 0,0 l/m 24,0 km/h (4 Bft) W-SW 250 0 min 0 W/m 11,0 C 9,1 C 24,0 km/h (4 Bft)
14.09.2010 00:12 15,1 C 76 % 1016,5 hPa 0,0 l/m 22,8 km/h (4 Bft) W-SW 250 0 min 0 W/m 10,9 C 9,2 C 22,8 km/h (4 Bft)
14.09.2010 00:17 15,1 C 76 % 1016,5 hPa 0,0 l/m 18,3 km/h (3 Bft) W-SW 240 0 min 0 W/m 10,9 C 10,3 C 18,3 km/h (3 Bft)
14.09.2010 00:22 15,1 C 76 % 1016,5 hPa 0,0 l/m 31,5 km/h (5 Bft) W-SW 245 0 min 0 W/m 10,9 C 7,6 C 31,5 km/h (5 Bft)
14.09.2010 00:27 15,0 C 77 % 1016,5 hPa 0,0 l/m 26,8 km/h (4 Bft) W-SW 250 0 min 0 W/m 11,0 C 8,3 C 26,8 km/h (4 Bft)
14.09.2010 00:31 15,0 C 78 % 1016,5 hPa 0,0 l/m 20,4 km/h (4 Bft) W-SW 245 0 min 0 W/m 11,2 C 9,6 C 20,4 km/h (4 Bft)
14.09.2010 00:36 15,0 C 78 % 1016,5 hPa 0,0 l/m 26,3 km/h (4 Bft) W-SW 255 0 min 0 W/m 11,2 C 8,4 C 26,3 km/h (4 Bft)
14.09.2010 00:41 15,0 C 79 % 1016,5 hPa 0,0 l/m 27,0 km/h (5 Bft) W 260 0 min 0 W/m 11,4 C 8,2 C 27,0 km/h (5 Bft)
14.09.2010 00:46 14,8 C 80 % 1016,5 hPa 0,3 l/m 28,5 km/h (5 Bft) W-SW 245 0 min 0 W/m 11,4 C 7,7 C 28,5 km/h (5 Bft)
14.09.2010 00:52 14,7 C 80 % 1016,5 hPa 0,0 l/m 29,3 km/h (5 Bft) W 260 0 min 0 W/m 11,3 C 7,4 C 29,3 km/h (5 Bft)
14.09.2010 00:57 14,6 C 81 % 1016,5 hPa 0,0 l/m 27,3 km/h (5 Bft) W-SW 255 0 min 0 W/m 11,4 C 7,6 C 27,3 km/h (5 Bft)
14.09.2010 01:02 14,4 C 82 % 1016,5 hPa 0,0 l/m 22,9 km/h (4 Bft) W-SW 250 0 min 0 W/m 11,4 C 8,3 C 22,9 km/h (4 Bft)
14.09.2010 01:06 14,4 C 82 % 1016,5 hPa 0,0 l/m 23,5 km/h (4 Bft) W-SW 250 0 min 0 W/m 11,4 C 8,1 C 23,5 km/h (4 Bft)
14.09.2010 01:11 14,3 C 83 % 1016,5 hPa 0,0 l/m 25,1 km/h (4 Bft) W-SW 250 0 min 0 W/m 11,5 C 7,6 C 25,1 km/h (4 Bft)
14.09.2010 01:16 14,2 C 83 % 1015,5 hPa 0,3 l/m 26,0 km/h (4 Bft) W-SW 250 0 min 0 W/m 11,4 C 7,3 C 26,0 km/h (4 Bft)
14.09.2010 01:22 14,1 C 85 % 1015,5 hPa 0,3 l/m 26,2 km/h (4 Bft) W-SW 250 0 min 0 W/m 11,6 C 7,1 C 26,2 km/h (4 Bft)
14.09.2010 01:27 14,1 C 85 % 1015,5 hPa 0,0 l/m 23,7 km/h (4 Bft) W-SW 250 0 min 0 W/m 11,6 C 7,7 C 23,7 km/h (4 Bft)
14.09.2010 01:32 14,0 C 86 % 1015,5 hPa 0,3 l/m 28,5 km/h (5 Bft) W-SW 255 0 min 0 W/m 11,7 C 6,6 C 28,5 km/h (5 Bft)
14.09.2010 01:37 14,0 C 86 % 1015,5 hPa 0,3 l/m 23,3 km/h (4 Bft) W-SW 245 0 min 0 W/m 11,7 C 7,6 C 23,3 km/h (4 Bft)
14.09.2010 01:41 13,9 C 87 % 1015,5 hPa 0,3 l/m 28,2 km/h (5 Bft) W-SW 255 0 min 0 W/m 11,8 C 6,5 C 28,2 km/h (5 Bft)
14.09.2010 01:46 13,8 C 87 % 1015,5 hPa 0,0 l/m 25,7 km/h (4 Bft) W-SW 240 0 min 0 W/m 11,7 C 6,8 C 25,7 km/h (4 Bft)
14.09.2010 01:51 13,8 C 87 % 1015,5 hPa 0,0 l/m 16,8 km/h (3 Bft) W-SW 255 0 min 0 W/m 11,7 C 9,1 C 16,8 km/h (3 Bft)
14.09.2010 01:56 13,8 C 87 % 1015,5 hPa 0,3 l/m 27,8 km/h (5 Bft) W-SW 250 0 min 0 W/m 11,7 C 6,4 C 27,8 km/h (5 Bft)
14.09.2010 02:01 13,7 C 87 % 1014,5 hPa 0,0 l/m 25,6 km/h (4 Bft) W-SW 240 0 min 0 W/m 11,6 C 6,7 C 25,6 km/h (4 Bft)
14.09.2010 02:07 13,7 C 88 % 1014,5 hPa 0,3 l/m 26,6 km/h (4 Bft) W-SW 240 0 min 0 W/m 11,7 C 6,5 C 26,6 km/h (4 Bft)
14.09.2010 02:11 13,6 C 88 % 1014,5 hPa 0,0 l/m 19,1 km/h (3 Bft) SW 225 0 min 0 W/m 11,6 C 8,2 C 19,1 km/h (3 Bft)
14.09.2010 02:16 13,6 C 88 % 1014,5 hPa 0,3 l/m 20,8 km/h (4 Bft) SW 230 0 min 0 W/m 11,6 C 7,7 C 20,8 km/h (4 Bft)
14.09.2010 02:21 13,6 C 88 % 1014,5 hPa 0,3 l/m 24,3 km/h (4 Bft) W-SW 240 0 min 0 W/m 11,6 C 6,9 C 24,3 km/h (4 Bft)
14.09.2010 02:26 13,6 C 88 % 1014,5 hPa 0,0 l/m 25,9 km/h (4 Bft) SW 230 0 min 0 W/m 11,6 C 6,5 C 25,9 km/h (4 Bft)
14.09.2010 02:31 13,6 C 89 % 1013,5 hPa 0,0 l/m 21,6 km/h (4 Bft) SW 225 0 min 0 W/m 11,8 C 7,5 C 21,6 km/h (4 Bft)
14.09.2010 02:37 13,6 C 89 % 1013,5 hPa 0,3 l/m 20,8 km/h (4 Bft) SW 230 0 min 0 W/m 11,8 C 7,7 C 20,8 km/h (4 Bft)
14.09.2010 02:42 13,5 C 89 % 1013,5 hPa 0,3 l/m 26,8 km/h (4 Bft) SW 230 0 min 0 W/m 11,7 C 6,2 C 26,8 km/h (4 Bft)
14.09.2010 02:47 13,5 C 90 % 1013,5 hPa 0,0 l/m 27,5 km/h (5 Bft) SW 235 0 min 0 W/m 11,9 C 6,1 C 27,5 km/h (5 Bft)
14.09.2010 02:52 13,4 C 89 % 1013,5 hPa 0,3 l/m 29,5 km/h (5 Bft) W-SW 250 0 min 0 W/m 11,6 C 5,5 C 29,5 km/h (5 Bft)
14.09.2010 02:56 13,4 C 90 % 1013,5 hPa 0,3 l/m 25,0 km/h (4 Bft) SW 235 0 min 0 W/m 11,8 C 6,4 C 25,0 km/h (4 Bft)
14.09.2010 03:01 13,4 C 90 % 1013,5 hPa 0,3 l/m 25,0 km/h (4 Bft) SW 235 0 min 0 W/m 11,8 C 6,4 C 25,0 km/h (4 Bft)
14.09.2010 03:07 13,2 C 90 % 1013,5 hPa 0,3 l/m 28,5 km/h (5 Bft) SW 235 0 min 0 W/m 11,6 C 5,4 C 28,5 km/h (5 Bft)
14.09.2010 03:12 13,2 C 90 % 1012,5 hPa 0,0 l/m 32,7 km/h (5 Bft) SW 235 0 min 0 W/m 11,6 C 4,7 C 32,7 km/h (5 Bft)
14.09.2010 03:17 13,2 C 90 % 1012,5 hPa 0,0 l/m 28,0 km/h (5 Bft) SW 230 0 min 0 W/m 11,6 C 5,5 C 28,0 km/h (5 Bft)
14.09.2010 03:22 13,2 C 90 % 1012,5 hPa 0,0 l/m 27,6 km/h (5 Bft) SW 235 0 min 0 W/m 11,6 C 5,6 C 27,6 km/h (5 Bft)
14.09.2010 03:26 13,2 C 90 % 1012,5 hPa 0,0 l/m 28,3 km/h (5 Bft) W-SW 245 0 min 0 W/m 11,6 C 5,5 C 28,3 km/h (5 Bft)
14.09.2010 03:31 13,2 C 90 % 1012,5 hPa 0,3 l/m 35,7 km/h (5 Bft) W-SW 240 0 min 0 W/m 11,6 C 4,2 C 35,7 km/h (5 Bft)
14.09.2010 03:36 13,2 C 91 % 1012,5 hPa 0,3 l/m 24,3 km/h (4 Bft) W-SW 240 0 min 0 W/m 11,8 C 6,3 C 24,3 km/h (4 Bft)
14.09.2010 03:41 13,2 C 91 % 1012,5 hPa 0,0 l/m 22,8 km/h (4 Bft) SW 235 0 min 0 W/m 11,8 C 6,7 C 22,8 km/h (4 Bft)
14.09.2010 03:47 13,2 C 91 % 1011,5 hPa 0,3 l/m 30,1 km/h (5 Bft) SW 230 0 min 0 W/m 11,8 C 5,1 C 30,1 km/h (5 Bft)
14.09.2010 03:52 13,2 C 91 % 1011,5 hPa 0,3 l/m 33,5 km/h (5 Bft) SW 235 0 min 0 W/m 11,8 C 4,6 C 33,5 km/h (5 Bft)
14.09.2010 03:57 13,2 C 91 % 1011,5 hPa 0,3 l/m 25,4 km/h (4 Bft) SW 230 0 min 0 W/m 11,8 C 6,1 C 25,4 km/h (4 Bft)
14.09.2010 04:02 13,2 C 91 % 1011,5 hPa 0,3 l/m 29,9 km/h (5 Bft) W-SW 245 0 min 0 W/m 11,8 C 5,2 C 29,9 km/h (5 Bft)
14.09.2010 04:06 13,2 C 91 % 1011,5 hPa 0,6 l/m 30,8 km/h (5 Bft) W-SW 240 0 min 0 W/m 11,8 C 5,0 C 30,8 km/h (5 Bft)
14.09.2010 04:12 13,2 C 91 % 1011,5 hPa 0,3 l/m 24,8 km/h (4 Bft) SW 235 0 min 0 W/m 11,8 C 6,2 C 24,8 km/h (4 Bft)
14.09.2010 04:17 13,2 C 92 % 1011,5 hPa 0,6 l/m 34,5 km/h (5 Bft) SW 235 0 min 0 W/m 11,9 C 4,4 C 34,5 km/h (5 Bft)
14.09.2010 04:22 13,2 C 92 % 1011,5 hPa 0,3 l/m 29,7 km/h (5 Bft) W-SW 240 0 min 0 W/m 11,9 C 5,2 C 29,7 km/h (5 Bft)
14.09.2010 04:27 13,2 C 92 % 1011,5 hPa 0,3 l/m 42,8 km/h (6 Bft) W-SW 240 0 min 0 W/m 11,9 C 3,3 C 42,8 km/h (6 Bft)
14.09.2010 04:32 13,2 C 92 % 1011,5 hPa 0,3 l/m 25,9 km/h (4 Bft) W-SW 240 0 min 0 W/m 11,9 C 6,0 C 25,9 km/h (4 Bft)
14.09.2010 04:36 13,2 C 93 % 1011,5 hPa 0,0 l/m 30,9 km/h (5 Bft) W-SW 245 0 min 0 W/m 12,1 C 5,0 C 30,9 km/h (5 Bft)
14.09.2010 04:41 13,3 C 93 % 1011,5 hPa 0,3 l/m 31,6 km/h (5 Bft) W-SW 240 0 min 0 W/m 12,2 C 5,0 C 31,6 km/h (5 Bft)
14.09.2010 04:46 13,4 C 93 % 1010,5 hPa 0,3 l/m 34,8 km/h (5 Bft) W-SW 250 0 min 0 W/m 12,3 C 4,6 C 34,8 km/h (5 Bft)
14.09.2010 04:52 13,3 C 93 % 1010,5 hPa 0,0 l/m 30,2 km/h (5 Bft) W-SW 240 0 min 0 W/m 12,2 C 5,3 C 30,2 km/h (5 Bft)
14.09.2010 04:57 13,4 C 93 % 1010,5 hPa 0,6 l/m 31,0 km/h (5 Bft) W-SW 250 0 min 0 W/m 12,3 C 5,3 C 31,0 km/h (5 Bft)
14.09.2010 05:02 13,4 C 93 % 1010,5 hPa 0,0 l/m 25,8 km/h (4 Bft) W-SW 245 0 min 0 W/m 12,3 C 6,3 C 25,8 km/h (4 Bft)
14.09.2010 05:06 13,4 C 93 % 1010,5 hPa 0,6 l/m 26,8 km/h (4 Bft) W-SW 240 0 min 0 W/m 12,3 C 6,1 C 26,8 km/h (4 Bft)
14.09.2010 05:11 13,4 C 93 % 1010,5 hPa 0,6 l/m 29,5 km/h (5 Bft) W-SW 245 0 min 0 W/m 12,3 C 5,5 C 29,5 km/h (5 Bft)
14.09.2010 05:17 13,5 C 93 % 1010,5 hPa 0,3 l/m 25,8 km/h (4 Bft) W-SW 240 0 min 0 W/m 12,4 C 6,4 C 25,8 km/h (4 Bft)
14.09.2010 05:22 13,5 C 93 % 1010,5 hPa 0,3 l/m 31,2 km/h (5 Bft) W-SW 245 0 min 0 W/m 12,4 C 5,4 C 31,2 km/h (5 Bft)
14.09.2010 05:27 13,6 C 93 % 1010,5 hPa 0,3 l/m 28,8 km/h (5 Bft) W-SW 240 0 min 0 W/m 12,5 C 5,9 C 28,8 km/h (5 Bft)
14.09.2010 05:32 13,6 C 93 % 1010,5 hPa 0,3 l/m 23,0 km/h (4 Bft) W-SW 240 0 min 0 W/m 12,5 C 7,2 C 23,0 km/h (4 Bft)
14.09.2010 05:36 13,6 C 94 % 1010,5 hPa 0,3 l/m 33,9 km/h (5 Bft) W-SW 250 0 min 0 W/m 12,7 C 5,1 C 33,9 km/h (5 Bft)
14.09.2010 05:41 13,7 C 94 % 1010,5 hPa 0,3 l/m 32,1 km/h (5 Bft) W-SW 250 0 min 0 W/m 12,8 C 5,5 C 32,1 km/h (5 Bft)
14.09.2010 05:46 13,8 C 94 % 1010,5 hPa 0,3 l/m 31,0 km/h (5 Bft) W-SW 250 0 min 0 W/m 12,9 C 5,8 C 31,0 km/h (5 Bft)
14.09.2010 05:51 13,8 C 94 % 1010,5 hPa 0,3 l/m 34,2 km/h (5 Bft) W-SW 255 0 min 0 W/m 12,9 C 5,3 C 34,2 km/h (5 Bft)
14.09.2010 05:57 13,9 C 94 % 1009,5 hPa 0,6 l/m 34,2 km/h (5 Bft) W-SW 255 0 min 0 W/m 12,9 C 5,5 C 34,2 km/h (5 Bft)
14.09.2010 06:02 13,9 C 94 % 1009,5 hPa 0,0 l/m 26,7 km/h (4 Bft) W-SW 245 0 min 0 W/m 12,9 C 6,8 C 26,7 km/h (4 Bft)
14.09.2010 06:06 14,0 C 94 % 1009,5 hPa 0,6 l/m 30,8 km/h (5 Bft) W-SW 250 0 min 0 W/m 13,0 C 6,1 C 30,8 km/h (5 Bft)
14.09.2010 06:11 14,0 C 94 % 1009,5 hPa 0,3 l/m 30,8 km/h (5 Bft) W-SW 250 0 min 0 W/m 13,0 C 6,1 C 30,8 km/h (5 Bft)
14.09.2010 06:17 14,1 C 94 % 1009,5 hPa 0,3 l/m 26,8 km/h (4 Bft) W-SW 250 0 min 0 W/m 13,1 C 7,0 C 26,8 km/h (4 Bft)
14.09.2010 06:22 14,1 C 94 % 1009,5 hPa 0,3 l/m 26,8 km/h (4 Bft) W-SW 250 0 min 0 W/m 13,1 C 7,0 C 26,8 km/h (4 Bft)
14.09.2010 06:27 14,3 C 94 % 1009,5 hPa 0,3 l/m 26,8 km/h (4 Bft) W-SW 250 0 min 0 W/m 13,3 C 7,3 C 26,8 km/h (4 Bft)
14.09.2010 06:32 14,4 C 95 % 1009,5 hPa 0,0 l/m 33,3 km/h (5 Bft) W-SW 255 0 min 0 W/m 13,6 C 6,3 C 33,3 km/h (5 Bft)
14.09.2010 06:37 14,4 C 95 % 1009,5 hPa 0,3 l/m 34,4 km/h (5 Bft) W 260 0 min 0 W/m 13,6 C 6,1 C 34,4 km/h (5 Bft)
14.09.2010 06:41 14,5 C 95 % 1009,5 hPa 0,3 l/m 34,4 km/h (5 Bft) W 260 0 min 0 W/m 13,7 C 6,3 C 34,4 km/h (5 Bft)
14.09.2010 06:46 14,6 C 95 % 1009,5 hPa 0,3 l/m 29,0 km/h (5 Bft) W-SW 250 0 min 0 W/m 13,8 C 7,3 C 29,0 km/h (5 Bft)
14.09.2010 06:51 14,6 C 95 % 1009,5 hPa 0,3 l/m 29,0 km/h (5 Bft) W-SW 250 0 min 0 W/m 13,8 C 7,3 C 29,0 km/h (5 Bft)
14.09.2010 06:57 14,7 C 95 % 1009,5 hPa 0,3 l/m 34,6 km/h (5 Bft) W-SW 250 0 min 0 W/m 13,9 C 6,6 C 34,6 km/h (5 Bft)
14.09.2010 07:02 14,8 C 94 % 1009,5 hPa 0,0 l/m 37,0 km/h (5 Bft) W-SW 255 0 min 0 W/m 13,8 C 6,4 C 37,0 km/h (5 Bft)
14.09.2010 07:06 14,8 C 94 % 1009,5 hPa 0,3 l/m 35,1 km/h (5 Bft) W-SW 255 0 min 0 W/m 13,8 C 6,6 C 35,1 km/h (5 Bft)
14.09.2010 07:11 14,9 C 94 % 1009,5 hPa 0,0 l/m 35,1 km/h (5 Bft) W-SW 255 0 min 0 W/m 13,9 C 6,8 C 35,1 km/h (5 Bft)
14.09.2010 07:16 15,0 C 94 % 1009,5 hPa 0,0 l/m 29,9 km/h (5 Bft) W-SW 250 0 min 0 W/m 14,0 C 7,7 C 29,9 km/h (5 Bft)
14.09.2010 07:22 15,0 C 94 % 1009,5 hPa 0,0 l/m 31,6 km/h (5 Bft) W-SW 255 0 min 0 W/m 14,0 C 7,4 C 31,6 km/h (5 Bft)
14.09.2010 07:27 15,0 C 94 % 1009,5 hPa 0,3 l/m 35,6 km/h (5 Bft) W-SW 250 0 min 0 W/m 14,0 C 6,9 C 35,6 km/h (5 Bft)
14.09.2010 07:32 15,0 C 94 % 1009,5 hPa 0,0 l/m 34,6 km/h (5 Bft) W-SW 255 0 min 0 W/m 14,0 C 7,0 C 34,6 km/h (5 Bft)
14.09.2010 07:37 15,0 C 94 % 1009,5 hPa 0,0 l/m 36,3 km/h (5 Bft) W 260 0 min 0 W/m 14,0 C 6,8 C 36,3 km/h (5 Bft)
14.09.2010 07:41 15,0 C 94 % 1009,5 hPa 0,0 l/m 42,1 km/h (6 Bft) W 260 0 min 0 W/m 14,0 C 6,1 C 42,1 km/h (6 Bft)
14.09.2010 07:46 15,0 C 94 % 1009,5 hPa 0,0 l/m 31,7 km/h (5 Bft) W 260 0 min 0 W/m 14,0 C 7,4 C 31,7 km/h (5 Bft)
14.09.2010 07:51 15,1 C 95 % 1009,5 hPa 0,0 l/m 38,2 km/h (6 Bft) W-SW 255 0 min 0 W/m 14,3 C 6,7 C 38,2 km/h (6 Bft)
14.09.2010 07:57 15,1 C 95 % 1009,5 hPa 0,0 l/m 32,1 km/h (5 Bft) W-SW 255 0 min 0 W/m 14,3 C 7,5 C 32,1 km/h (5 Bft)
14.09.2010 08:02 15,2 C 95 % 1009,5 hPa 0,3 l/m 33,7 km/h (5 Bft) W-SW 255 0 min 0 W/m 14,4 C 7,4 C 33,7 km/h (5 Bft)
14.09.2010 08:06 15,2 C 95 % 1009,5 hPa 0,0 l/m 19,2 km/h (3 Bft) W 260 0 min 0 W/m 14,4 C 10,2 C 19,2 km/h (3 Bft)
14.09.2010 08:11 15,2 C 95 % 1009,5 hPa 0,0 l/m 26,7 km/h (4 Bft) W-SW 250 0 min 0 W/m 14,4 C 8,5 C 26,7 km/h (4 Bft)
14.09.2010 08:16 15,3 C 95 % 1009,5 hPa 0,0 l/m 25,5 km/h (4 Bft) W 265 0 min 0 W/m 14,5 C 8,9 C 25,5 km/h (4 Bft)
14.09.2010 08:21 15,4 C 95 % 1009,5 hPa 0,0 l/m 25,1 km/h (4 Bft) W 270 0 min 0 W/m 14,6 C 9,1 C 25,1 km/h (4 Bft)
14.09.2010 08:27 15,5 C 95 % 1009,5 hPa 0,0 l/m 32,1 km/h (5 Bft) W 260 0 min 0 W/m 14,7 C 8,1 C 32,1 km/h (5 Bft)
14.09.2010 08:32 15,5 C 95 % 1009,5 hPa 0,0 l/m 27,8 km/h (5 Bft) W-SW 255 0 min 0 W/m 14,7 C 8,8 C 27,8 km/h (5 Bft)
14.09.2010 08:37 15,5 C 95 % 1009,5 hPa 0,0 l/m 30,8 km/h (5 Bft) W-SW 255 0 min 0 W/m 14,7 C 8,3 C 30,8 km/h (5 Bft)
14.09.2010 08:42 15,6 C 95 % 1009,5 hPa 0,0 l/m 24,0 km/h (4 Bft) W 260 0 min 0 W/m 14,8 C 9,6 C 24,0 km/h (4 Bft)
14.09.2010 08:46 15,6 C 95 % 1009,5 hPa 0,0 l/m 31,1 km/h (5 Bft) W-SW 255 0 min 0 W/m 14,8 C 8,4 C 31,1 km/h (5 Bft)
14.09.2010 08:51 15,6 C 95 % 1009,5 hPa 0,0 l/m 28,3 km/h (5 Bft) W 260 0 min 0 W/m 14,8 C 8,8 C 28,3 km/h (5 Bft)
14.09.2010 08:56 15,7 C 95 % 1009,5 hPa 0,3 l/m 20,9 km/h (4 Bft) W 265 0 min 0 W/m 14,9 C 10,4 C 20,9 km/h (4 Bft)
14.09.2010 09:02 15,8 C 95 % 1009,5 hPa 0,0 l/m 24,5 km/h (4 Bft) W 270 0 min 0 W/m 15,0 C 9,8 C 24,5 km/h (4 Bft)
14.09.2010 09:07 15,8 C 95 % 1009,5 hPa 0,0 l/m 21,6 km/h (4 Bft) W 270 0 min 0 W/m 15,0 C 10,4 C 21,6 km/h (4 Bft)
14.09.2010 09:11 15,9 C 95 % 1009,5 hPa 0,0 l/m 18,1 km/h (3 Bft) W-SW 255 0 min 0 W/m 15,1 C 11,4 C 18,1 km/h (3 Bft)
14.09.2010 09:16 16,0 C 95 % 1009,5 hPa 0,0 l/m 27,2 km/h (5 Bft) W 265 0 min 0 W/m 15,2 C 9,6 C 27,2 km/h (5 Bft)
14.09.2010 09:21 16,0 C 95 % 1009,5 hPa 0,0 l/m 18,8 km/h (3 Bft) W 260 0 min 0 W/m 15,2 C 11,3 C 18,8 km/h (3 Bft)
14.09.2010 09:27 16,0 C 95 % 1009,5 hPa 0,0 l/m 20,8 km/h (4 Bft) W 275 0 min 0 W/m 15,2 C 10,8 C 20,8 km/h (4 Bft)
14.09.2010 09:32 16,1 C 95 % 1009,5 hPa 0,0 l/m 20,8 km/h (4 Bft) W 265 0 min 0 W/m 15,3 C 11,0 C 20,8 km/h (4 Bft)
14.09.2010 09:37 16,1 C 95 % 1009,5 hPa 0,0 l/m 21,7 km/h (4 Bft) W 260 0 min 0 W/m 15,3 C 10,8 C 21,7 km/h (4 Bft)
14.09.2010 09:42 16,2 C 96 % 1009,5 hPa 0,3 l/m 22,5 km/h (4 Bft) W 260 0 min 0 W/m 15,6 C 10,7 C 22,5 km/h (4 Bft)
14.09.2010 09:46 16,3 C 95 % 1009,5 hPa 0,0 l/m 21,0 km/h (4 Bft) W 265 0 min 0 W/m 15,5 C 11,2 C 21,0 km/h (4 Bft)
14.09.2010 09:51 16,3 C 95 % 1009,5 hPa 0,0 l/m 21,0 km/h (4 Bft) W 265 0 min 0 W/m 15,5 C 11,2 C 21,0 km/h (4 Bft)
14.09.2010 09:56 16,3 C 95 % 1009,5 hPa 0,0 l/m 24,2 km/h (4 Bft) W 265 0 min 0 W/m 15,5 C 10,5 C 24,2 km/h (4 Bft)
14.09.2010 10:02 16,4 C 95 % 1009,5 hPa 0,0 l/m 22,3 km/h (4 Bft) W 260 0 min 0 W/m 15,6 C 11,0 C 22,3 km/h (4 Bft)
14.09.2010 10:07 16,4 C 95 % 1009,5 hPa 0,0 l/m 24,5 km/h (4 Bft) W 270 0 min 0 W/m 15,6 C 10,6 C 24,5 km/h (4 Bft)
14.09.2010 10:11 16,4 C 95 % 1009,5 hPa 0,0 l/m 21,0 km/h (4 Bft) W 260 0 min 0 W/m 15,6 C 11,3 C 21,0 km/h (4 Bft)
14.09.2010 10:16 16,4 C 95 % 1009,5 hPa 0,0 l/m 24,8 km/h (4 Bft) W 270 0 min 0 W/m 15,6 C 10,5 C 24,8 km/h (4 Bft)
14.09.2010 10:21 16,5 C 95 % 1009,5 hPa 0,0 l/m 18,3 km/h (3 Bft) W 265 0 min 0 W/m 15,7 C 12,1 C 18,3 km/h (3 Bft)
14.09.2010 10:27 16,5 C 95 % 1009,5 hPa 0,0 l/m 24,6 km/h (4 Bft) W 260 0 min 0 W/m 15,7 C 10,7 C 24,6 km/h (4 Bft)
14.09.2010 10:32 16,5 C 95 % 1009,5 hPa 0,0 l/m 23,3 km/h (4 Bft) W 270 0 min 0 W/m 15,7 C 11,0 C 23,3 km/h (4 Bft)
14.09.2010 10:37 16,5 C 95 % 1009,5 hPa 0,0 l/m 21,7 km/h (4 Bft) W 265 0 min 0 W/m 15,7 C 11,3 C 21,7 km/h (4 Bft)
14.09.2010 10:41 16,5 C 95 % 1009,5 hPa 0,0 l/m 24,0 km/h (4 Bft) W 275 0 min 0 W/m 15,7 C 10,8 C 24,0 km/h (4 Bft)
14.09.2010 10:46 16,6 C 95 % 1009,5 hPa 0,0 l/m 20,5 km/h (4 Bft) W 270 0 min 0 W/m 15,8 C 11,7 C 20,5 km/h (4 Bft)
14.09.2010 10:51 16,6 C 95 % 1009,5 hPa 0,0 l/m 20,6 km/h (4 Bft) W 275 0 min 0 W/m 15,8 C 11,7 C 20,6 km/h (4 Bft)
14.09.2010 10:57 16,7 C 95 % 1009,5 hPa 0,0 l/m 22,1 km/h (4 Bft) W 260 0 min 0 W/m 15,9 C 11,5 C 22,1 km/h (4 Bft)
14.09.2010 11:02 16,7 C 95 % 1009,5 hPa 0,0 l/m 19,8 km/h (3 Bft) W 270 0 min 0 W/m 15,9 C 12,0 C 19,8 km/h (3 Bft)
14.09.2010 11:06 16,7 C 95 % 1009,5 hPa 0,0 l/m 19,8 km/h (3 Bft) W 270 0 min 0 W/m 15,9 C 12,0 C 19,8 km/h (3 Bft)
14.09.2010 11:11 16,8 C 95 % 1009,5 hPa 0,0 l/m 21,6 km/h (4 Bft) W 265 0 min 0 W/m 16,0 C 11,7 C 21,6 km/h (4 Bft)
14.09.2010 11:16 16,8 C 95 % 1009,5 hPa 0,0 l/m 24,5 km/h (4 Bft) W 265 0 min 0 W/m 16,0 C 11,1 C 24,5 km/h (4 Bft)
14.09.2010 11:22 16,8 C 95 % 1009,5 hPa 0,0 l/m 26,8 km/h (4 Bft) W 265 0 min 0 W/m 16,0 C 10,7 C 26,8 km/h (4 Bft)
14.09.2010 11:27 16,8 C 95 % 1009,5 hPa 0,0 l/m 27,1 km/h (5 Bft) W 275 0 min 0 W/m 16,0 C 10,7 C 27,1 km/h (5 Bft)
14.09.2010 11:32 16,8 C 95 % 1009,5 hPa 0,0 l/m 29,3 km/h (5 Bft) W 260 0 min 0 W/m 16,0 C 10,3 C 29,3 km/h (5 Bft)
14.09.2010 11:37 16,8 C 95 % 1009,5 hPa 0,0 l/m 24,0 km/h (4 Bft) W 260 0 min 0 W/m 16,0 C 11,2 C 24,0 km/h (4 Bft)
14.09.2010 11:41 16,8 C 95 % 1009,5 hPa 0,0 l/m 18,8 km/h (3 Bft) W 270 0 min 0 W/m 16,0 C 12,4 C 18,8 km/h (3 Bft)
14.09.2010 11:46 16,8 C 95 % 1009,5 hPa 0,0 l/m 22,3 km/h (4 Bft) W 270 0 min 0 W/m 16,0 C 11,6 C 22,3 km/h (4 Bft)
14.09.2010 11:51 16,9 C 95 % 1009,5 hPa 0,0 l/m 23,3 km/h (4 Bft) W 280 0 min 0 W/m 16,1 C 11,5 C 23,3 km/h (4 Bft)
14.09.2010 11:57 16,9 C 95 % 1009,5 hPa 0,0 l/m 26,0 km/h (4 Bft) W 260 0 min 0 W/m 16,1 C 11,0 C 26,0 km/h (4 Bft)
14.09.2010 12:02 16,9 C 94 % 1009,5 hPa 0,0 l/m 26,0 km/h (4 Bft) W 275 0 min 0 W/m 15,9 C 11,0 C 26,0 km/h (4 Bft)
14.09.2010 12:06 17,0 C 94 % 1009,5 hPa 0,0 l/m 25,0 km/h (4 Bft) W 270 0 min 0 W/m 16,0 C 11,3 C 25,0 km/h (4 Bft)
14.09.2010 12:11 17,0 C 94 % 1009,5 hPa 0,0 l/m 26,9 km/h (4 Bft) W 270 0 min 0 W/m 16,0 C 11,0 C 26,9 km/h (4 Bft)
14.09.2010 12:17 16,9 C 94 % 1009,5 hPa 0,0 l/m 28,8 km/h (5 Bft) W-NW 285 0 min 0 W/m 15,9 C 10,5 C 28,8 km/h (5 Bft)
14.09.2010 12:22 16,9 C 94 % 1009,5 hPa 0,0 l/m 27,9 km/h (5 Bft) W 265 0 min 0 W/m 15,9 C 10,7 C 27,9 km/h (5 Bft)
14.09.2010 12:27 16,8 C 94 % 1009,5 hPa 0,0 l/m 24,0 km/h (4 Bft) W 265 0 min 0 W/m 15,8 C 11,2 C 24,0 km/h (4 Bft)
14.09.2010 12:32 16,8 C 94 % 1009,5 hPa 0,0 l/m 24,5 km/h (4 Bft) W 260 0 min 0 W/m 15,8 C 11,1 C 24,5 km/h (4 Bft)
14.09.2010 12:36 16,8 C 94 % 1009,5 hPa 0,0 l/m 20,1 km/h (4 Bft) W-SW 255 0 min 0 W/m 15,8 C 12,0 C 20,1 km/h (4 Bft)
14.09.2010 12:41 16,8 C 94 % 1009,5 hPa 0,0 l/m 19,9 km/h (4 Bft) W 270 0 min 0 W/m 15,8 C 12,1 C 19,9 km/h (4 Bft)
14.09.2010 12:46 16,8 C 94 % 1009,5 hPa 0,3 l/m 21,5 km/h (4 Bft) W 265 0 min 0 W/m 15,8 C 11,7 C 21,5 km/h (4 Bft)
14.09.2010 12:52 16,8 C 94 % 1009,5 hPa 0,0 l/m 17,6 km/h (3 Bft) W 265 0 min 0 W/m 15,8 C 12,7 C 17,6 km/h (3 Bft)
14.09.2010 12:57 16,8 C 94 % 1009,5 hPa 0,0 l/m 23,2 km/h (4 Bft) W 275 0 min 0 W/m 15,8 C 11,4 C 23,2 km/h (4 Bft)
14.09.2010 13:02 16,8 C 94 % 1009,5 hPa 0,0 l/m 25,3 km/h (4 Bft) W 265 0 min 0 W/m 15,8 C 11,0 C 25,3 km/h (4 Bft)
14.09.2010 13:06 16,8 C 94 % 1009,5 hPa 0,0 l/m 24,0 km/h (4 Bft) W 270 0 min 0 W/m 15,8 C 11,2 C 24,0 km/h (4 Bft)
14.09.2010 13:11 16,8 C 94 % 1009,5 hPa 0,0 l/m 24,8 km/h (4 Bft) W 265 0 min 0 W/m 15,8 C 11,1 C 24,8 km/h (4 Bft)
14.09.2010 13:17 16,8 C 94 % 1008,5 hPa 0,0 l/m 23,6 km/h (4 Bft) W 260 0 min 0 W/m 15,8 C 11,3 C 23,6 km/h (4 Bft)
14.09.2010 13:22 16,9 C 94 % 1008,5 hPa 0,0 l/m 22,0 km/h (4 Bft) W-SW 245 0 min 0 W/m 15,9 C 11,8 C 22,0 km/h (4 Bft)
14.09.2010 13:27 16,8 C 94 % 1008,5 hPa 0,0 l/m 24,1 km/h (4 Bft) W 270 0 min 0 W/m 15,8 C 11,2 C 24,1 km/h (4 Bft)
14.09.2010 13:32 16,8 C 94 % 1008,5 hPa 0,0 l/m 20,9 km/h (4 Bft) W 260 0 min 0 W/m 15,8 C 11,9 C 20,9 km/h (4 Bft)
14.09.2010 13:36 16,8 C 94 % 1008,5 hPa 0,0 l/m 30,0 km/h (5 Bft) W 265 0 min 0 W/m 15,8 C 10,2 C 30,0 km/h (5 Bft)
14.09.2010 13:41 16,8 C 94 % 1008,5 hPa 0,0 l/m 29,5 km/h (5 Bft) W-SW 250 0 min 0 W/m 15,8 C 10,3 C 29,5 km/h (5 Bft)
14.09.2010 13:46 16,8 C 94 % 1008,5 hPa 0,3 l/m 18,5 km/h (3 Bft) W 265 0 min 0 W/m 15,8 C 12,4 C 18,5 km/h (3 Bft)
14.09.2010 13:52 16,8 C 94 % 1008,5 hPa 0,0 l/m 18,5 km/h (3 Bft) W 265 0 min 0 W/m 15,8 C 12,4 C 18,5 km/h (3 Bft)
14.09.2010 13:57 16,8 C 94 % 1008,5 hPa 0,0 l/m 17,4 km/h (3 Bft) W-SW 255 0 min 0 W/m 15,8 C 12,7 C 17,4 km/h (3 Bft)
14.09.2010 14:02 16,8 C 94 % 1008,5 hPa 0,0 l/m 20,2 km/h (4 Bft) W 260 0 min 0 W/m 15,8 C 12,0 C 20,2 km/h (4 Bft)
14.09.2010 14:06 16,8 C 94 % 1008,5 hPa 0,0 l/m 19,3 km/h (3 Bft) W 265 0 min 0 W/m 15,8 C 12,2 C 19,3 km/h (3 Bft)
14.09.2010 14:12 16,8 C 95 % 1008,5 hPa 0,6 l/m 26,6 km/h (4 Bft) W 265 0 min 0 W/m 16,0 C 10,8 C 26,6 km/h (4 Bft)
14.09.2010 14:17 16,8 C 95 % 1008,5 hPa 0,0 l/m 26,1 km/h (4 Bft) W 260 0 min 0 W/m 16,0 C 10,9 C 26,1 km/h (4 Bft)
14.09.2010 14:22 16,8 C 95 % 1008,5 hPa 0,0 l/m 22,6 km/h (4 Bft) W 260 0 min 0 W/m 16,0 C 11,5 C 22,6 km/h (4 Bft)
14.09.2010 14:27 16,8 C 95 % 1008,5 hPa 0,3 l/m 21,5 km/h (4 Bft) W 260 0 min 0 W/m 16,0 C 11,7 C 21,5 km/h (4 Bft)
14.09.2010 14:31 16,8 C 95 % 1008,5 hPa 0,0 l/m 22,3 km/h (4 Bft) W 260 0 min 0 W/m 16,0 C 11,6 C 22,3 km/h (4 Bft)
14.09.2010 14:36 16,8 C 95 % 1008,5 hPa 0,3 l/m 24,8 km/h (4 Bft) W-SW 250 0 min 0 W/m 16,0 C 11,1 C 24,8 km/h (4 Bft)
14.09.2010 14:41 16,8 C 95 % 1008,5 hPa 0,0 l/m 27,5 km/h (5 Bft) W-SW 250 0 min 0 W/m 16,0 C 10,6 C 27,5 km/h (5 Bft)
14.09.2010 14:47 16,8 C 95 % 1008,5 hPa 0,0 l/m 22,0 km/h (4 Bft) W-SW 255 0 min 0 W/m 16,0 C 11,6 C 22,0 km/h (4 Bft)
14.09.2010 14:52 16,8 C 95 % 1008,5 hPa 0,0 l/m 25,6 km/h (4 Bft) W 265 0 min 0 W/m 16,0 C 10,9 C 25,6 km/h (4 Bft)
14.09.2010 14:57 16,8 C 95 % 1008,5 hPa 0,0 l/m 22,0 km/h (4 Bft) W 260 0 min 0 W/m 16,0 C 11,6 C 22,0 km/h (4 Bft)
14.09.2010 15:01 16,8 C 95 % 1008,5 hPa 0,0 l/m 21,7 km/h (4 Bft) W 260 0 min 0 W/m 16,0 C 11,7 C 21,7 km/h (4 Bft)
14.09.2010 15:07 16,8 C 95 % 1008,5 hPa 0,0 l/m 21,9 km/h (4 Bft) W-SW 250 0 min 0 W/m 16,0 C 11,7 C 21,9 km/h (4 Bft)
14.09.2010 15:12 16,8 C 95 % 1008,5 hPa 0,0 l/m 23,5 km/h (4 Bft) W 260 0 min 0 W/m 16,0 C 11,3 C 23,5 km/h (4 Bft)
14.09.2010 15:17 16,8 C 95 % 1008,5 hPa 0,0 l/m 24,1 km/h (4 Bft) W-SW 250 0 min 0 W/m 16,0 C 11,2 C 24,1 km/h (4 Bft)
14.09.2010 15:22 16,8 C 95 % 1008,5 hPa 0,3 l/m 30,3 km/h (5 Bft) W 265 0 min 0 W/m 16,0 C 10,2 C 30,3 km/h (5 Bft)
14.09.2010 15:26 16,8 C 95 % 1008,5 hPa 0,0 l/m 23,0 km/h (4 Bft) W 260 0 min 0 W/m 16,0 C 11,4 C 23,0 km/h (4 Bft)
14.09.2010 15:31 16,8 C 95 % 1008,5 hPa 0,0 l/m 24,8 km/h (4 Bft) W 260 0 min 0 W/m 16,0 C 11,1 C 24,8 km/h (4 Bft)
14.09.2010 15:36 16,8 C 95 % 1008,5 hPa 0,0 l/m 27,7 km/h (5 Bft) W 260 0 min 0 W/m 16,0 C 10,6 C 27,7 km/h (5 Bft)
14.09.2010 15:42 16,8 C 95 % 1007,5 hPa 0,0 l/m 28,0 km/h (5 Bft) W-SW 250 0 min 0 W/m 16,0 C 10,5 C 28,0 km/h (5 Bft)
14.09.2010 15:47 16,8 C 95 % 1007,5 hPa 0,0 l/m 22,0 km/h (4 Bft) W-SW 255 0 min 0 W/m 16,0 C 11,6 C 22,0 km/h (4 Bft)
14.09.2010 15:52 16,8 C 95 % 1007,5 hPa 0,3 l/m 22,8 km/h (4 Bft) W 260 0 min 0 W/m 16,0 C 11,5 C 22,8 km/h (4 Bft)
14.09.2010 15:56 16,7 C 95 % 1007,5 hPa 0,0 l/m 19,1 km/h (3 Bft) W 275 0 min 0 W/m 15,9 C 12,2 C 19,1 km/h (3 Bft)
14.09.2010 16:01 16,7 C 95 % 1007,5 hPa 0,0 l/m 25,3 km/h (4 Bft) W 265 0 min 0 W/m 15,9 C 10,9 C 25,3 km/h (4 Bft)
14.09.2010 16:07 16,8 C 95 % 1007,5 hPa 0,3 l/m 27,1 km/h (5 Bft) W 265 0 min 0 W/m 16,0 C 10,7 C 27,1 km/h (5 Bft)
14.09.2010 16:12 16,7 C 95 % 1007,5 hPa 0,3 l/m 25,1 km/h (4 Bft) W 265 0 min 0 W/m 15,9 C 10,9 C 25,1 km/h (4 Bft)
14.09.2010 16:16 16,7 C 95 % 1007,5 hPa 0,0 l/m 25,3 km/h (4 Bft) W 265 0 min 0 W/m 15,9 C 10,9 C 25,3 km/h (4 Bft)
14.09.2010 16:21 16,7 C 95 % 1007,5 hPa 0,6 l/m 19,8 km/h (3 Bft) W 270 0 min 0 W/m 15,9 C 12,0 C 19,8 km/h (3 Bft)
14.09.2010 16:26 16,7 C 95 % 1007,5 hPa 0,0 l/m 18,1 km/h (3 Bft) W 270 0 min 0 W/m 15,9 C 12,4 C 18,1 km/h (3 Bft)
14.09.2010 16:32 16,6 C 95 % 1007,5 hPa 0,0 l/m 29,7 km/h (5 Bft) W 265 0 min 0 W/m 15,8 C 10,0 C 29,7 km/h (5 Bft)
14.09.2010 16:37 16,7 C 95 % 1007,5 hPa 0,0 l/m 29,6 km/h (5 Bft) W 265 0 min 0 W/m 15,9 C 10,1 C 29,6 km/h (5 Bft)
14.09.2010 16:42 16,6 C 95 % 1007,5 hPa 0,0 l/m 27,6 km/h (5 Bft) W-SW 255 0 min 0 W/m 15,8 C 10,3 C 27,6 km/h (5 Bft)
14.09.2010 16:46 16,6 C 95 % 1007,5 hPa 0,0 l/m 28,9 km/h (5 Bft) W 260 0 min 0 W/m 15,8 C 10,1 C 28,9 km/h (5 Bft)
14.09.2010 16:51 16,6 C 95 % 1007,5 hPa 0,0 l/m 29,8 km/h (5 Bft) W 260 0 min 0 W/m 15,8 C 10,0 C 29,8 km/h (5 Bft)
14.09.2010 16:56 16,6 C 95 % 1007,5 hPa 0,3 l/m 26,0 km/h (4 Bft) W-SW 255 0 min 0 W/m 15,8 C 10,6 C 26,0 km/h (4 Bft)
14.09.2010 17:02 16,6 C 95 % 1007,5 hPa 0,0 l/m 19,0 km/h (3 Bft) W-SW 255 0 min 0 W/m 15,8 C 12,1 C 19,0 km/h (3 Bft)
14.09.2010 17:07 16,6 C 95 % 1007,5 hPa 0,0 l/m 25,3 km/h (4 Bft) W-SW 255 0 min 0 W/m 15,8 C 10,7 C 25,3 km/h (4 Bft)
14.09.2010 17:11 16,6 C 95 % 1007,5 hPa 0,0 l/m 28,0 km/h (5 Bft) W 260 0 min 0 W/m 15,8 C 10,3 C 28,0 km/h (5 Bft)
14.09.2010 17:16 16,6 C 95 % 1007,5 hPa 0,0 l/m 23,8 km/h (4 Bft) W 260 0 min 0 W/m 15,8 C 11,0 C 23,8 km/h (4 Bft)
14.09.2010 17:22 16,7 C 95 % 1007,5 hPa 0,0 l/m 27,8 km/h (5 Bft) W 260 0 min 0 W/m 15,9 C 10,4 C 27,8 km/h (5 Bft)
14.09.2010 17:27 16,7 C 95 % 1007,5 hPa 0,3 l/m 26,5 km/h (4 Bft) W 260 0 min 0 W/m 15,9 C 10,6 C 26,5 km/h (4 Bft)
14.09.2010 17:32 16,6 C 95 % 1007,5 hPa 0,0 l/m 36,2 km/h (5 Bft) W-SW 250 0 min 0 W/m 15,8 C 9,1 C 36,2 km/h (5 Bft)
14.09.2010 17:37 16,6 C 95 % 1007,5 hPa 0,0 l/m 28,6 km/h (5 Bft) W 265 0 min 0 W/m 15,8 C 10,2 C 28,6 km/h (5 Bft)
14.09.2010 17:41 16,5 C 95 % 1006,5 hPa 0,0 l/m 30,6 km/h (5 Bft) W-SW 250 0 min 0 W/m 15,7 C 9,7 C 30,6 km/h (5 Bft)
14.09.2010 17:46 16,5 C 95 % 1006,5 hPa 0,0 l/m 28,0 km/h (5 Bft) W 260 0 min 0 W/m 15,7 C 10,1 C 28,0 km/h (5 Bft)
14.09.2010 17:52 16,5 C 95 % 1006,5 hPa 0,0 l/m 32,4 km/h (5 Bft) W-SW 250 0 min 0 W/m 15,7 C 9,4 C 32,4 km/h (5 Bft)
14.09.2010 17:57 16,6 C 95 % 1006,5 hPa 0,0 l/m 29,0 km/h (5 Bft) W 260 0 min 0 W/m 15,8 C 10,1 C 29,0 km/h (5 Bft)
14.09.2010 18:02 16,6 C 95 % 1006,5 hPa 0,0 l/m 28,4 km/h (5 Bft) W-SW 250 0 min 0 W/m 15,8 C 10,2 C 28,4 km/h (5 Bft)
14.09.2010 18:06 16,5 C 95 % 1006,5 hPa 0,0 l/m 26,3 km/h (4 Bft) W-SW 250 0 min 0 W/m 15,7 C 10,4 C 26,3 km/h (4 Bft)
14.09.2010 18:12 16,6 C 95 % 1006,5 hPa 0,0 l/m 34,6 km/h (5 Bft) W-SW 255 0 min 0 W/m 15,8 C 9,3 C 34,6 km/h (5 Bft)
14.09.2010 18:17 16,6 C 95 % 1006,5 hPa 0,0 l/m 29,6 km/h (5 Bft) W 260 0 min 0 W/m 15,8 C 10,0 C 29,6 km/h (5 Bft)
14.09.2010 18:22 16,6 C 95 % 1006,5 hPa 0,0 l/m 28,8 km/h (5 Bft) W-SW 255 0 min 0 W/m 15,8 C 10,1 C 28,8 km/h (5 Bft)
14.09.2010 18:27 16,6 C 95 % 1006,5 hPa 0,0 l/m 27,0 km/h (5 Bft) W 260 0 min 0 W/m 15,8 C 10,4 C 27,0 km/h (5 Bft)
14.09.2010 18:31 16,6 C 95 % 1006,5 hPa 0,3 l/m 24,0 km/h (4 Bft) W 260 0 min 0 W/m 15,8 C 11,0 C 24,0 km/h (4 Bft)
14.09.2010 18:36 16,5 C 95 % 1006,5 hPa 0,0 l/m 30,5 km/h (5 Bft) W-SW 255 0 min 0 W/m 15,7 C 9,7 C 30,5 km/h (5 Bft)
14.09.2010 18:42 16,5 C 95 % 1006,5 hPa 0,0 l/m 31,4 km/h (5 Bft) W-SW 250 0 min 0 W/m 15,7 C 9,6 C 31,4 km/h (5 Bft)
14.09.2010 18:47 16,5 C 95 % 1006,5 hPa 0,0 l/m 23,1 km/h (4 Bft) W-SW 250 0 min 0 W/m 15,7 C 11,0 C 23,1 km/h (4 Bft)
14.09.2010 18:52 16,5 C 95 % 1006,5 hPa 0,0 l/m 26,1 km/h (4 Bft) W 260 0 min 0 W/m 15,7 C 10,4 C 26,1 km/h (4 Bft)
14.09.2010 18:57 16,5 C 95 % 1005,5 hPa 0,0 l/m 32,4 km/h (5 Bft) W-SW 255 0 min 0 W/m 15,7 C 9,4 C 32,4 km/h (5 Bft)
14.09.2010 19:01 16,5 C 95 % 1005,5 hPa 0,0 l/m 26,4 km/h (4 Bft) W-SW 255 0 min 0 W/m 15,7 C 10,4 C 26,4 km/h (4 Bft)
14.09.2010 19:07 16,5 C 95 % 1005,5 hPa 0,3 l/m 31,2 km/h (5 Bft) W-SW 255 0 min 0 W/m 15,7 C 9,6 C 31,2 km/h (5 Bft)
14.09.2010 19:12 16,4 C 95 % 1005,5 hPa 0,0 l/m 23,4 km/h (4 Bft) W-SW 255 0 min 0 W/m 15,6 C 10,8 C 23,4 km/h (4 Bft)
14.09.2010 19:17 16,5 C 95 % 1005,5 hPa 0,0 l/m 21,5 km/h (4 Bft) W-SW 255 0 min 0 W/m 15,7 C 11,3 C 21,5 km/h (4 Bft)
14.09.2010 19:21 16,5 C 95 % 1005,5 hPa 0,0 l/m 23,6 km/h (4 Bft) W-SW 255 0 min 0 W/m 15,7 C 10,9 C 23,6 km/h (4 Bft)
14.09.2010 19:26 16,5 C 95 % 1005,5 hPa 0,0 l/m 22,8 km/h (4 Bft) W-SW 250 0 min 0 W/m 15,7 C 11,1 C 22,8 km/h (4 Bft)
14.09.2010 19:31 16,5 C 95 % 1005,5 hPa 0,0 l/m 26,1 km/h (4 Bft) W-SW 250 0 min 0 W/m 15,7 C 10,4 C 26,1 km/h (4 Bft)
14.09.2010 19:37 16,5 C 96 % 1005,5 hPa 0,0 l/m 31,1 km/h (5 Bft) W-SW 250 0 min 0 W/m 15,9 C 9,6 C 31,1 km/h (5 Bft)
14.09.2010 19:42 16,4 C 96 % 1005,5 hPa 0,0 l/m 21,5 km/h (4 Bft) W-SW 250 0 min 0 W/m 15,8 C 11,2 C 21,5 km/h (4 Bft)
14.09.2010 19:47 16,4 C 96 % 1005,5 hPa 0,0 l/m 19,3 km/h (3 Bft) W-SW 255 0 min 0 W/m 15,8 C 11,7 C 19,3 km/h (3 Bft)
14.09.2010 19:51 16,4 C 96 % 1005,5 hPa 0,3 l/m 24,9 km/h (4 Bft) W-SW 250 0 min 0 W/m 15,8 C 10,5 C 24,9 km/h (4 Bft)
14.09.2010 19:56 16,4 C 96 % 1004,5 hPa 0,0 l/m 23,8 km/h (4 Bft) W-SW 245 0 min 0 W/m 15,8 C 10,7 C 23,8 km/h (4 Bft)
14.09.2010 20:01 16,4 C 96 % 1004,5 hPa 0,0 l/m 20,1 km/h (4 Bft) W-SW 245 0 min 0 W/m 15,8 C 11,5 C 20,1 km/h (4 Bft)
14.09.2010 20:07 16,4 C 96 % 1004,5 hPa 0,3 l/m 17,5 km/h (3 Bft) W-SW 245 0 min 0 W/m 15,8 C 12,2 C 17,5 km/h (3 Bft)
14.09.2010 20:11 16,3 C 96 % 1004,5 hPa 0,0 l/m 30,2 km/h (5 Bft) W-SW 250 0 min 0 W/m 15,7 C 9,5 C 30,2 km/h (5 Bft)
14.09.2010 20:16 16,3 C 96 % 1004,5 hPa 0,0 l/m 25,7 km/h (4 Bft) W-SW 245 0 min 0 W/m 15,7 C 10,2 C 25,7 km/h (4 Bft)
14.09.2010 20:21 16,3 C 96 % 1004,5 hPa 0,0 l/m 32,0 km/h (5 Bft) W-SW 250 0 min 0 W/m 15,7 C 9,2 C 32,0 km/h (5 Bft)
14.09.2010 20:27 16,3 C 96 % 1004,5 hPa 0,3 l/m 29,6 km/h (5 Bft) W-SW 245 0 min 0 W/m 15,7 C 9,6 C 29,6 km/h (5 Bft)
14.09.2010 20:32 16,3 C 96 % 1004,5 hPa 0,0 l/m 27,0 km/h (5 Bft) W-SW 240 0 min 0 W/m 15,7 C 10,0 C 27,0 km/h (5 Bft)
14.09.2010 20:37 16,3 C 96 % 1004,5 hPa 0,0 l/m 23,5 km/h (4 Bft) W-SW 255 0 min 0 W/m 15,7 C 10,7 C 23,5 km/h (4 Bft)
14.09.2010 20:41 16,3 C 96 % 1004,5 hPa 0,0 l/m 30,7 km/h (5 Bft) W-SW 245 0 min 0 W/m 15,7 C 9,4 C 30,7 km/h (5 Bft)
14.09.2010 20:47 16,3 C 96 % 1004,5 hPa 0,0 l/m 26,9 km/h (4 Bft) W-SW 250 0 min 0 W/m 15,7 C 10,0 C 26,9 km/h (4 Bft)
14.09.2010 20:52 16,3 C 96 % 1004,5 hPa 0,0 l/m 25,3 km/h (4 Bft) W-SW 250 0 min 0 W/m 15,7 C 10,3 C 25,3 km/h (4 Bft)
14.09.2010 20:57 16,3 C 96 % 1004,5 hPa 0,0 l/m 26,1 km/h (4 Bft) W-SW 245 0 min 0 W/m 15,7 C 10,2 C 26,1 km/h (4 Bft)
14.09.2010 21:02 16,3 C 96 % 1003,5 hPa 0,0 l/m 26,0 km/h (4 Bft) W-SW 240 0 min 0 W/m 15,7 C 10,2 C 26,0 km/h (4 Bft)
14.09.2010 21:07 16,3 C 96 % 1003,5 hPa 0,3 l/m 29,8 km/h (5 Bft) W-SW 245 0 min 0 W/m 15,7 C 9,5 C 29,8 km/h (5 Bft)
14.09.2010 21:12 16,3 C 96 % 1003,5 hPa 0,0 l/m 27,4 km/h (5 Bft) W-SW 245 0 min 0 W/m 15,7 C 9,9 C 27,4 km/h (5 Bft)
14.09.2010 21:17 16,3 C 96 % 1003,5 hPa 0,3 l/m 29,7 km/h (5 Bft) W-SW 255 0 min 0 W/m 15,7 C 9,6 C 29,7 km/h (5 Bft)
14.09.2010 21:22 16,3 C 96 % 1003,5 hPa 0,0 l/m 29,4 km/h (5 Bft) W-SW 240 0 min 0 W/m 15,7 C 9,6 C 29,4 km/h (5 Bft)
14.09.2010 21:26 16,3 C 96 % 1003,5 hPa 0,0 l/m 32,1 km/h (5 Bft) W-SW 240 0 min 0 W/m 15,7 C 9,2 C 32,1 km/h (5 Bft)
14.09.2010 21:31 16,3 C 96 % 1003,5 hPa 0,0 l/m 28,9 km/h (5 Bft) W-SW 245 0 min 0 W/m 15,7 C 9,7 C 28,9 km/h (5 Bft)
14.09.2010 21:37 16,4 C 96 % 1003,5 hPa 0,0 l/m 29,3 km/h (5 Bft) W-SW 245 0 min 0 W/m 15,8 C 9,8 C 29,3 km/h (5 Bft)
14.09.2010 21:42 16,3 C 96 % 1003,5 hPa 0,0 l/m 33,0 km/h (5 Bft) W-SW 250 0 min 0 W/m 15,7 C 9,1 C 33,0 km/h (5 Bft)
14.09.2010 21:47 16,4 C 96 % 1003,5 hPa 0,0 l/m 29,6 km/h (5 Bft) W-SW 250 0 min 0 W/m 15,8 C 9,7 C 29,6 km/h (5 Bft)
14.09.2010 21:52 16,4 C 96 % 1003,5 hPa 0,6 l/m 26,9 km/h (4 Bft) W-SW 245 0 min 0 W/m 15,8 C 10,2 C 26,9 km/h (4 Bft)
14.09.2010 21:56 16,4 C 96 % 1003,5 hPa 0,3 l/m 24,3 km/h (4 Bft) W-SW 240 0 min 0 W/m 15,8 C 10,6 C 24,3 km/h (4 Bft)
14.09.2010 22:01 16,4 C 96 % 1003,5 hPa 0,0 l/m 23,5 km/h (4 Bft) W-SW 245 0 min 0 W/m 15,8 C 10,8 C 23,5 km/h (4 Bft)
14.09.2010 22:07 16,4 C 96 % 1002,5 hPa 0,0 l/m 37,6 km/h (5 Bft) SW 235 0 min 0 W/m 15,8 C 8,6 C 37,6 km/h (5 Bft)
14.09.2010 22:11 16,4 C 96 % 1002,5 hPa 0,0 l/m 30,0 km/h (5 Bft) W-SW 250 0 min 0 W/m 15,8 C 9,7 C 30,0 km/h (5 Bft)
14.09.2010 22:16 16,4 C 96 % 1002,5 hPa 0,0 l/m 26,0 km/h (4 Bft) W-SW 250 0 min 0 W/m 15,8 C 10,3 C 26,0 km/h (4 Bft)
14.09.2010 22:21 16,4 C 96 % 1002,5 hPa 1,2 l/m 29,5 km/h (5 Bft) W-SW 245 0 min 0 W/m 15,8 C 9,7 C 29,5 km/h (5 Bft)
14.09.2010 22:27 16,4 C 96 % 1002,5 hPa 0,6 l/m 29,0 km/h (5 Bft) W-SW 240 0 min 0 W/m 15,8 C 9,8 C 29,0 km/h (5 Bft)
14.09.2010 22:32 16,4 C 96 % 1002,5 hPa 0,6 l/m 33,7 km/h (5 Bft) W-SW 240 0 min 0 W/m 15,8 C 9,1 C 33,7 km/h (5 Bft)
14.09.2010 22:37 16,4 C 96 % 1002,5 hPa 0,6 l/m 24,3 km/h (4 Bft) W-SW 245 0 min 0 W/m 15,8 C 10,6 C 24,3 km/h (4 Bft)
14.09.2010 22:41 16,4 C 96 % 1002,5 hPa 2,4 l/m 27,6 km/h (5 Bft) W-SW 250 0 min 0 W/m 15,8 C 10,0 C 27,6 km/h (5 Bft)
14.09.2010 22:46 16,3 C 96 % 1002,5 hPa 0,3 l/m 27,8 km/h (5 Bft) W-NW 290 0 min 0 W/m 15,7 C 9,9 C 27,8 km/h (5 Bft)
14.09.2010 22:52 16,0 C 95 % 1002,5 hPa 0,6 l/m 25,5 km/h (4 Bft) W-NW 285 0 min 0 W/m 15,2 C 9,9 C 25,5 km/h (4 Bft)
14.09.2010 22:57 15,9 C 95 % 1002,5 hPa 0,3 l/m 26,3 km/h (4 Bft) W-NW 290 0 min 0 W/m 15,1 C 9,6 C 26,3 km/h (4 Bft)
14.09.2010 23:02 15,7 C 95 % 1002,5 hPa 0,6 l/m 28,4 km/h (5 Bft) W 280 0 min 0 W/m 14,9 C 8,9 C 28,4 km/h (5 Bft)
14.09.2010 23:06 15,6 C 95 % 1002,5 hPa 0,0 l/m 28,6 km/h (5 Bft) W-NW 285 0 min 0 W/m 14,8 C 8,8 C 28,6 km/h (5 Bft)
14.09.2010 23:12 15,4 C 94 % 1002,5 hPa 0,3 l/m 15,3 km/h (3 Bft) W-NW 285 0 min 0 W/m 14,4 C 11,6 C 15,3 km/h (3 Bft)
14.09.2010 23:17 15,3 C 94 % 1002,5 hPa 0,0 l/m 16,9 km/h (3 Bft) W-NW 285 0 min 0 W/m 14,3 C 11,0 C 16,9 km/h (3 Bft)
14.09.2010 23:22 15,3 C 94 % 1002,5 hPa 0,0 l/m 21,0 km/h (4 Bft) W 275 0 min 0 W/m 14,3 C 9,9 C 21,0 km/h (4 Bft)
14.09.2010 23:26 15,3 C 94 % 1002,5 hPa 0,3 l/m 15,1 km/h (3 Bft) W 270 0 min 0 W/m 14,3 C 11,5 C 15,1 km/h (3 Bft)
14.09.2010 23:31 15,3 C 94 % 1002,5 hPa 0,3 l/m 18,7 km/h (3 Bft) W 260 0 min 0 W/m 14,3 C 10,5 C 18,7 km/h (3 Bft)
14.09.2010 23:37 15,2 C 94 % 1002,5 hPa 0,3 l/m 23,0 km/h (4 Bft) W 270 0 min 0 W/m 14,2 C 9,3 C 23,0 km/h (4 Bft)
14.09.2010 23:42 15,2 C 94 % 1002,5 hPa 0,0 l/m 16,6 km/h (3 Bft) W-SW 250 0 min 0 W/m 14,2 C 10,9 C 16,6 km/h (3 Bft)
14.09.2010 23:47 15,2 C 94 % 1002,5 hPa 0,3 l/m 16,8 km/h (3 Bft) W 265 0 min 0 W/m 14,2 C 10,9 C 16,8 km/h (3 Bft)
14.09.2010 23:52 15,2 C 94 % 1002,5 hPa 0,3 l/m 20,5 km/h (4 Bft) W-SW 255 0 min 0 W/m 14,2 C 9,9 C 20,5 km/h (4 Bft)
14.09.2010 23:56 15,2 C 94 % 1002,5 hPa 0,0 l/m 27,0 km/h (5 Bft) W 275 0 min 0 W/m 14,2 C 8,5 C 27,0 km/h (5 Bft)
_ Min-Zeit 03:07 00:02 22:07 - 23:26 - - - - 00:12 04:27 23:26
Minimum _ 13,2 C 76 % 1002,5 hPa - 15,1 km/h (3 Bft) - - - - 10,9 C 3,3 C 15,1 km/h (3 Bft)
_ Max-Zeit 12:06 09:42 00:02 22:41 04:27 - - 00:02 00:02 11:51 13:57 04:27
Maximum _ 17,0 C 96 % 1016,5 hPa 2,4 l/m 42,8 km/h
W-SW (6 Bft)
- - 0 min 0 W/m 16,1 C 12,7 C 42,8 km/h
W-SW (6 Bft)
Durchschnitt _ 15,6 C 93 % 1008,8 hPa #35,4 l/m 26,3 km/h (4 Bft) W-SW - #0 min. 0 W/m 14,5 C 9,3 C 26,3 km/h (4 Bft)
copyright by Holger Just